createdAt,value
2018-05-29T00:02:26.018Z,32.63
2018-05-29T00:05:00.638Z,34.73
2018-05-29T00:07:35.961Z,31.70
2018-05-29T00:10:05.268Z,32.50
2018-05-29T00:12:40.686Z,33.17
2018-05-29T00:15:15.351Z,33.07
2018-05-29T00:17:50.071Z,30.80
2018-05-29T00:20:24.609Z,32.07
2018-05-29T00:22:59.272Z,33.43
2018-05-29T00:25:33.836Z,32.13
2018-05-29T00:28:08.419Z,33.70
2018-05-29T00:30:43.008Z,34.50
2018-05-29T00:33:12.959Z,34.37
2018-05-29T00:35:47.661Z,32.90
2018-05-29T00:38:23.229Z,34.73
2018-05-29T00:40:57.807Z,32.87
2018-05-29T00:43:32.521Z,33.97
2018-05-29T00:46:07.168Z,33.83
2018-05-29T00:48:41.815Z,43.90
2018-05-29T00:51:16.431Z,36.93
2018-05-29T00:54:02.040Z,35.63
2018-05-29T00:56:37.109Z,36.13
2018-05-29T00:59:06.288Z,38.57
2018-05-29T01:01:41.021Z,36.20
2018-05-29T01:04:15.584Z,36.40
2018-05-29T01:06:50.975Z,38.63
2018-05-29T01:09:26.293Z,37.50
2018-05-29T01:12:01.652Z,37.53
2018-05-29T01:14:36.281Z,36.80
2018-05-29T01:17:10.933Z,39.73
2018-05-29T01:19:45.485Z,38.30
2018-05-29T01:25:17.274Z,39.07
2018-05-29T01:27:52.556Z,38.00
2018-05-29T01:30:27.147Z,38.17
2018-05-29T01:33:01.778Z,39.53
2018-05-29T01:35:37.223Z,40.53
2018-05-29T01:38:06.397Z,42.90
2018-05-29T01:40:41.049Z,38.70
2018-05-29T01:43:15.597Z,39.27
2018-05-29T01:45:50.247Z,39.60
2018-05-29T01:48:24.985Z,41.40
2018-05-29T01:51:00.356Z,40.43
2018-05-29T01:53:31.503Z,38.73
2018-05-29T01:56:05.738Z,41.50
2018-05-29T01:58:41.420Z,41.00
2018-05-29T02:01:16.899Z,43.13
2018-05-29T02:03:46.399Z,40.47
2018-05-29T02:06:21.101Z,42.13
2018-05-29T02:08:55.681Z,41.30
2018-05-29T02:11:30.594Z,40.47
2018-05-29T02:13:59.742Z,41.80
2018-05-29T02:16:34.522Z,41.77
2018-05-29T02:19:09.148Z,40.57
2018-05-29T02:21:43.891Z,40.00
2018-05-29T02:24:18.628Z,42.00
2018-05-29T02:26:53.264Z,43.10
2018-05-29T02:29:27.862Z,41.03
2018-05-29T02:32:02.493Z,41.57
2018-05-29T02:34:37.086Z,42.10
2018-05-29T02:37:11.724Z,42.63
2018-05-29T02:39:46.381Z,42.80
2018-05-29T02:42:21.019Z,40.33
2018-05-29T02:44:55.276Z,42.57
2018-05-29T02:47:29.967Z,43.40
2018-05-29T02:50:05.291Z,42.43
2018-05-29T02:52:39.999Z,44.57
2018-05-29T02:55:15.535Z,47.60
2018-05-29T02:57:50.142Z,44.80
2018-05-29T03:00:24.683Z,46.57
2018-05-29T03:02:59.332Z,48.23
2018-05-29T03:05:34.363Z,47.27
2018-05-29T03:08:09.779Z,47.53
2018-05-29T03:10:44.542Z,45.27
2018-05-29T03:13:19.163Z,45.80
2018-05-29T03:15:53.815Z,47.00
2018-05-29T03:18:28.040Z,47.57
2018-05-29T03:21:02.731Z,46.13
2018-05-29T03:23:37.219Z,44.70
2018-05-29T03:26:12.575Z,45.63
2018-05-29T03:28:47.907Z,46.53
2018-05-29T03:31:17.822Z,46.40
2018-05-29T03:33:52.451Z,49.20
2018-05-29T03:36:27.033Z,51.60
2018-05-29T03:39:01.571Z,46.63
2018-05-29T03:41:36.335Z,44.23
2018-05-29T03:44:11.095Z,45.13
2018-05-29T03:46:45.772Z,54.10
2018-05-29T03:49:21.115Z,45.97
2018-05-29T03:51:55.692Z,47.57
2018-05-29T03:54:30.313Z,45.17
2018-05-29T03:57:04.561Z,50.73
2018-05-29T03:59:39.625Z,46.17
2018-05-29T04:02:14.325Z,46.13
2018-05-29T04:04:49.712Z,47.00
2018-05-29T04:07:24.349Z,48.60
2018-05-29T04:09:58.995Z,45.13
2018-05-29T04:12:34.623Z,47.63
2018-05-29T04:15:09.347Z,47.67
2018-05-29T04:17:44.099Z,46.03
2018-05-29T04:20:19.723Z,46.57
2018-05-29T04:22:54.205Z,46.07
2018-05-29T04:25:28.745Z,45.07
2018-05-29T04:27:58.558Z,46.67
2018-05-29T04:30:34.093Z,44.17
2018-05-29T04:33:08.708Z,45.43
2018-05-29T04:35:43.468Z,44.80
2018-05-29T04:38:12.696Z,42.23
2018-05-29T04:40:47.381Z,43.70
2018-05-29T04:43:21.959Z,43.47
2018-05-29T04:45:56.502Z,45.83
2018-05-29T04:48:31.276Z,44.57
2018-05-29T04:51:05.859Z,45.57
2018-05-29T04:53:41.285Z,44.03
2018-05-29T04:56:16.086Z,46.00
2018-05-29T04:58:48.502Z,50.20
2018-05-29T05:01:23.209Z,50.97
2018-05-29T05:04:02.370Z,49.03
2018-05-29T05:06:36.967Z,48.53
2018-05-29T05:09:12.724Z,50.17
2018-05-29T05:11:47.411Z,50.50
2018-05-29T05:14:22.561Z,50.93
2018-05-29T05:16:57.100Z,54.77
2018-05-29T05:19:31.831Z,51.73
2018-05-29T05:22:06.655Z,52.27
2018-05-29T05:24:41.356Z,51.07
2018-05-29T05:27:16.185Z,51.70
2018-05-29T05:29:50.933Z,48.70
2018-05-29T05:32:20.758Z,45.77
2018-05-29T05:34:49.907Z,47.63
2018-05-29T05:37:19.019Z,49.33
2018-05-29T05:39:48.108Z,51.37
2018-05-29T05:42:17.165Z,42.60
2018-05-29T05:45:08.811Z,41.80
2018-05-29T05:47:37.937Z,42.53
2018-05-29T05:50:07.055Z,36.77
2018-05-29T05:52:37.235Z,37.97
2018-05-29T05:55:11.989Z,37.70
2018-05-29T05:57:46.642Z,37.60
2018-05-29T06:00:21.190Z,38.00
2018-05-29T06:02:56.569Z,35.43
2018-05-29T06:05:26.327Z,34.47
2018-05-29T06:08:01.014Z,33.60
2018-05-29T06:10:35.763Z,32.50
2018-05-29T06:13:10.552Z,32.73
2018-05-29T06:15:45.146Z,31.23
2018-05-29T06:18:20.075Z,31.90
2018-05-29T06:20:54.830Z,28.63
2018-05-29T06:23:30.467Z,27.57
2018-05-29T06:26:05.843Z,29.83
2018-05-29T06:28:38.246Z,27.17
2018-05-29T06:31:08.043Z,27.63
2018-05-29T06:33:37.459Z,28.50
2018-05-29T06:36:07.172Z,26.20
2018-05-29T06:38:37.734Z,34.57
2018-05-29T06:41:07.715Z,24.43
2018-05-29T06:43:36.901Z,25.60
2018-05-29T06:46:11.540Z,24.63
2018-05-29T06:48:46.185Z,25.13
2018-05-29T06:51:21.485Z,25.43
2018-05-29T06:53:56.058Z,24.77
2018-05-29T06:56:25.388Z,25.13
2018-05-29T06:58:55.814Z,23.40
2018-05-29T07:01:24.905Z,24.10
2018-05-29T07:03:54.229Z,23.30
2018-05-29T07:06:23.355Z,23.57
2018-05-29T07:08:52.597Z,21.93
2018-05-29T07:11:21.639Z,22.90
2018-05-29T07:13:51.533Z,22.30
2018-05-29T07:16:27.314Z,21.20
2018-05-29T07:19:01.952Z,22.87
2018-05-29T07:21:36.557Z,20.20
2018-05-29T07:24:10.931Z,20.27
2018-05-29T07:26:45.658Z,19.43
2018-05-29T07:29:20.304Z,19.57
2018-05-29T07:31:55.367Z,19.33
2018-05-29T07:34:30.137Z,20.73
2018-05-29T07:37:05.652Z,17.50
2018-05-29T07:39:40.447Z,18.80
2018-05-29T07:42:15.357Z,19.83
2018-05-29T07:44:49.878Z,20.13
2018-05-29T07:47:24.657Z,19.03
2018-05-29T07:50:00.195Z,18.57
2018-05-29T07:52:34.867Z,18.00
2018-05-29T07:55:09.425Z,18.33
2018-05-29T07:57:44.297Z,20.73
2018-05-29T08:00:18.979Z,19.07
2018-05-29T08:02:53.944Z,18.77
2018-05-29T08:05:29.364Z,17.20
2018-05-29T08:08:04.277Z,19.07
2018-05-29T08:10:39.857Z,19.03
2018-05-29T08:13:15.545Z,18.77
2018-05-29T08:15:50.312Z,18.30
2018-05-29T08:18:28.772Z,18.97
2018-05-29T08:21:03.366Z,18.67
2018-05-29T08:23:38.116Z,19.50
2018-05-29T08:26:13.639Z,19.37
2018-05-29T08:28:48.351Z,19.20
2018-05-29T08:31:23.059Z,18.50
2018-05-29T08:33:57.888Z,21.00
2018-05-29T08:36:33.537Z,18.60
2018-05-29T08:39:09.179Z,19.80
2018-05-29T08:41:44.560Z,19.80
2018-05-29T08:44:19.288Z,19.10
2018-05-29T08:46:54.761Z,18.50
2018-05-29T08:49:29.763Z,18.73
2018-05-29T08:52:03.659Z,18.43
2018-05-29T08:54:38.435Z,20.03
2018-05-29T08:57:13.112Z,18.90
2018-05-29T08:59:47.672Z,21.40
2018-05-29T09:02:22.347Z,19.63
2018-05-29T09:04:56.995Z,21.60
2018-05-29T09:07:31.850Z,20.50
2018-05-29T09:10:06.461Z,21.53
2018-05-29T09:12:40.999Z,20.57
2018-05-29T09:15:19.284Z,21.37
2018-05-29T09:17:54.169Z,22.60
2018-05-29T09:20:28.676Z,21.73
2018-05-29T09:23:03.263Z,21.77
2018-05-29T09:25:37.925Z,22.30
2018-05-29T09:28:12.541Z,22.13
2018-05-29T09:30:47.201Z,21.73
2018-05-29T09:33:21.977Z,22.23
2018-05-29T09:35:56.622Z,22.03
2018-05-29T09:38:31.249Z,21.73
2018-05-29T09:41:05.959Z,23.23
2018-05-29T09:43:40.537Z,22.20
2018-05-29T09:46:15.260Z,21.50
2018-05-29T09:48:50.181Z,22.27
2018-05-29T09:51:22.789Z,22.00
2018-05-29T09:53:52.058Z,22.47
2018-05-29T09:56:21.026Z,25.40
2018-05-29T09:58:50.134Z,23.50
2018-05-29T10:01:20.068Z,21.23
2018-05-29T10:03:54.826Z,21.53
2018-05-29T10:06:29.514Z,20.87
2018-05-29T10:09:03.227Z,21.70
2018-05-29T10:11:38.026Z,20.53
2018-05-29T10:14:12.848Z,18.80
2018-05-29T10:16:47.430Z,22.67
2018-05-29T10:19:22.233Z,21.13
2018-05-29T10:21:57.836Z,27.20
2018-05-29T10:24:32.885Z,24.17
2018-05-29T10:27:07.466Z,38.87
2018-05-29T10:29:42.025Z,26.93
2018-05-29T10:32:16.843Z,21.30
2018-05-29T10:34:51.584Z,27.77
2018-05-29T10:37:26.347Z,25.10
2018-05-29T10:40:01.075Z,23.00
2018-05-29T10:42:35.933Z,23.70
2018-05-29T10:45:10.481Z,18.73
2018-05-29T10:47:45.126Z,21.50
2018-05-29T10:50:20.572Z,21.47
2018-05-29T10:52:55.299Z,20.70
2018-05-29T10:55:30.178Z,21.70
2018-05-29T10:58:04.526Z,20.50
2018-05-29T11:00:39.237Z,22.60
2018-05-29T11:03:13.956Z,21.83
2018-05-29T11:05:48.662Z,25.20
2018-05-29T11:08:23.492Z,21.03
2018-05-29T11:10:58.332Z,20.97
2018-05-29T11:13:33.009Z,22.17
2018-05-29T11:16:07.630Z,21.73
2018-05-29T11:18:42.929Z,21.48
2018-05-29T11:21:17.758Z,20.03
2018-05-29T11:23:53.216Z,22.58
2018-05-29T11:26:27.990Z,22.00
2018-05-29T11:29:03.291Z,21.05
2018-05-29T11:31:38.711Z,20.25
2018-05-29T11:34:14.048Z,21.42
2018-05-29T11:36:48.724Z,21.80
2018-05-29T11:39:23.894Z,21.02
2018-05-29T11:41:58.469Z,21.30
2018-05-29T11:44:34.497Z,20.48
2018-05-29T11:47:09.111Z,23.50
2018-05-29T11:49:44.615Z,22.63
2018-05-29T11:52:19.779Z,21.67
2018-05-29T11:54:55.019Z,21.30
2018-05-29T11:57:29.764Z,22.73
2018-05-29T12:00:04.568Z,21.00
2018-05-29T12:02:39.296Z,22.13
2018-05-29T12:05:15.336Z,19.55
2018-05-29T12:07:50.140Z,22.00
2018-05-29T12:10:25.482Z,20.98
2018-05-29T12:13:00.663Z,20.62
2018-05-29T12:15:35.256Z,20.67
2018-05-29T12:18:11.199Z,18.95
2018-05-29T12:20:46.799Z,20.67
2018-05-29T12:23:21.958Z,20.95
2018-05-29T12:25:57.105Z,19.45
2018-05-29T12:28:32.245Z,21.55
2018-05-29T12:31:06.622Z,20.70
2018-05-29T12:33:41.923Z,20.08
2018-05-29T12:36:17.421Z,20.90
2018-05-29T12:38:52.783Z,20.70
2018-05-29T12:41:27.956Z,21.77
2018-05-29T12:44:03.150Z,20.67
2018-05-29T12:46:38.496Z,19.65
2018-05-29T12:49:13.294Z,20.57
2018-05-29T12:51:48.497Z,22.08
2018-05-29T12:54:23.875Z,21.10
2018-05-29T12:56:58.461Z,21.30
2018-05-29T12:59:34.464Z,21.75
2018-05-29T13:02:09.013Z,23.00
2018-05-29T13:04:44.276Z,21.75
2018-05-29T13:07:18.878Z,21.23
2018-05-29T13:09:54.188Z,21.00
2018-05-29T13:12:29.422Z,22.55
2018-05-29T13:15:05.124Z,22.50
2018-05-29T13:17:40.383Z,21.60
2018-05-29T13:20:15.891Z,23.12
2018-05-29T13:22:51.236Z,27.00
2018-05-29T13:25:26.483Z,23.17
2018-05-29T13:28:01.689Z,25.48
2018-05-29T13:30:37.820Z,23.40
2018-05-29T13:33:12.983Z,23.08
2018-05-29T13:35:48.236Z,21.90
2018-05-29T13:38:23.498Z,21.65
2018-05-29T13:40:58.882Z,22.17
2018-05-29T13:43:33.476Z,24.60
2018-05-29T13:46:08.136Z,21.83
2018-05-29T13:48:42.851Z,21.27
2018-05-29T13:51:18.102Z,24.77
2018-05-29T13:53:54.017Z,22.48
2018-05-29T13:56:28.703Z,21.90
2018-05-29T13:59:04.578Z,24.52
2018-05-29T14:01:39.980Z,21.97
2018-05-29T14:04:15.703Z,23.43
2018-05-29T14:06:50.274Z,21.43
2018-05-29T14:09:24.983Z,24.43
2018-05-29T14:12:01.251Z,23.03
2018-05-29T14:14:35.839Z,23.13
2018-05-29T14:17:10.527Z,23.33
2018-05-29T14:19:45.066Z,29.63
2018-05-29T14:22:21.060Z,46.00
2018-05-29T14:24:56.488Z,61.97
2018-05-29T14:27:33.006Z,49.07
2018-05-29T14:30:08.704Z,55.00
2018-05-29T14:32:43.442Z,59.10
2018-05-29T14:35:18.100Z,53.30
2018-05-29T14:37:52.686Z,51.63
2018-05-29T14:40:27.341Z,51.33
2018-05-29T14:43:01.950Z,49.80
2018-05-29T14:45:36.743Z,57.20
2018-05-29T14:48:11.436Z,50.37
2018-05-29T14:50:46.130Z,52.33
2018-05-29T14:53:20.923Z,39.23
2018-05-29T14:55:55.707Z,37.50
2018-05-29T14:58:30.364Z,21.10
2018-05-29T15:01:05.005Z,20.33
2018-05-29T15:03:44.812Z,19.47
2018-05-29T15:06:20.374Z,28.63
2018-05-29T15:08:56.122Z,22.87
2018-05-29T15:11:30.830Z,22.77
2018-05-29T15:14:05.498Z,15.57
2018-05-29T15:16:40.195Z,19.33
2018-05-29T15:19:14.960Z,21.70
2018-05-29T15:21:49.593Z,17.67
2018-05-29T15:24:25.009Z,35.43
2018-05-29T15:27:01.142Z,21.40
2018-05-29T15:29:35.384Z,16.50
2018-05-29T15:32:10.140Z,17.07
2018-05-29T15:34:45.506Z,32.77
2018-05-29T15:37:20.138Z,23.80
2018-05-29T15:39:55.445Z,30.83
2018-05-29T15:42:30.150Z,29.70
2018-05-29T15:45:04.501Z,20.17
2018-05-29T15:47:39.437Z,24.93
2018-05-29T15:50:14.042Z,68.07
2018-05-29T15:52:48.710Z,32.43
2018-05-29T15:55:23.345Z,49.40
2018-05-29T15:57:58.060Z,43.90
2018-05-29T16:00:32.703Z,54.03
2018-05-29T16:03:08.114Z,67.50
2018-05-29T16:05:42.820Z,69.27
2018-05-29T16:08:17.550Z,105.30
2018-05-29T16:10:52.198Z,99.20
2018-05-29T16:13:26.813Z,93.47
2018-05-29T16:16:01.456Z,79.03
2018-05-29T16:18:36.032Z,71.77
2018-05-29T16:21:10.659Z,63.03
2018-05-29T16:23:45.194Z,52.30
2018-05-29T16:26:19.815Z,77.93
2018-05-29T16:28:54.426Z,94.20
2018-05-29T16:31:28.736Z,99.93
2018-05-29T16:34:03.208Z,100.33
2018-05-29T16:36:37.873Z,105.43
2018-05-29T16:39:13.325Z,112.73
2018-05-29T16:41:48.724Z,110.27
2018-05-29T16:44:23.501Z,73.40
2018-05-29T16:46:58.233Z,74.77
2018-05-29T16:49:33.093Z,79.87
2018-05-29T16:52:07.879Z,96.50
2018-05-29T16:54:42.550Z,83.17
2018-05-29T16:57:17.168Z,58.63
2018-05-29T16:59:51.719Z,67.30
2018-05-29T17:02:27.270Z,90.80
2018-05-29T17:05:01.828Z,69.57
2018-05-29T17:07:36.468Z,88.00
2018-05-29T17:10:11.211Z,104.23
2018-05-29T17:12:45.986Z,100.27
2018-05-29T17:15:20.774Z,99.27
2018-05-29T17:17:55.688Z,108.03
2018-05-29T17:20:30.472Z,114.00
2018-05-29T17:23:06.550Z,115.83
2018-05-29T17:25:41.342Z,115.63
2018-05-29T17:28:23.240Z,122.77
2018-05-29T17:30:57.963Z,96.67
2018-05-29T17:33:27.215Z,68.70
2018-05-29T17:36:02.814Z,72.10
2018-05-29T17:38:38.259Z,83.70
2018-05-29T17:41:12.898Z,81.10
2018-05-29T17:43:47.529Z,82.73
2018-05-29T17:46:22.071Z,93.97
2018-05-29T17:48:57.021Z,63.43
2018-05-29T17:51:31.985Z,61.10
2018-05-29T17:54:07.018Z,48.07
2018-05-29T17:56:42.069Z,46.13
2018-05-29T17:59:17.832Z,46.37
2018-05-29T18:01:52.556Z,39.00
2018-05-29T18:04:27.736Z,38.50
2018-05-29T18:07:02.863Z,41.13
2018-05-29T18:09:37.836Z,38.73
2018-05-29T18:12:12.769Z,38.50
2018-05-29T18:14:47.556Z,37.67
2018-05-29T18:17:22.431Z,29.50
2018-05-29T18:19:57.379Z,27.03
2018-05-29T18:22:32.403Z,29.70
2018-05-29T18:25:07.528Z,31.50
2018-05-29T18:27:42.563Z,30.20
2018-05-29T18:30:17.229Z,28.60
2018-05-29T18:32:52.146Z,29.10
2018-05-29T18:35:26.893Z,29.17
2018-05-29T18:38:01.569Z,29.03
2018-05-29T18:40:36.640Z,34.27
2018-05-29T18:43:11.257Z,27.40
2018-05-29T18:45:45.991Z,29.10
2018-05-29T18:48:20.617Z,29.37
2018-05-29T18:50:55.222Z,30.40
2018-05-29T18:53:29.844Z,27.40
2018-05-29T18:55:59.622Z,29.20
2018-05-29T18:58:28.744Z,33.10
2018-05-29T19:00:57.944Z,28.60
2018-05-29T19:03:27.209Z,37.50
2018-05-29T19:05:56.707Z,33.23
2018-05-29T19:08:26.504Z,26.53
2018-05-29T19:10:56.442Z,24.73
2018-05-29T19:13:25.573Z,22.83
2018-05-29T19:15:54.575Z,23.77
2018-05-29T19:18:24.599Z,25.23
2018-05-29T19:20:53.887Z,28.03
2018-05-29T19:23:23.348Z,24.20
2018-05-29T19:25:53.096Z,22.40
2018-05-29T19:28:23.137Z,23.03
2018-05-29T19:30:52.325Z,31.27
2018-05-29T19:33:21.643Z,19.00
2018-05-29T19:35:51.767Z,23.67
2018-05-29T19:38:21.507Z,24.67
2018-05-29T19:40:51.506Z,18.13
2018-05-29T19:43:26.268Z,16.97
2018-05-29T19:46:01.229Z,15.80
2018-05-29T19:48:36.784Z,19.93
2018-05-29T19:51:12.350Z,18.10
2018-05-29T19:53:47.255Z,11.97
2018-05-29T19:56:22.027Z,17.20
2018-05-29T19:58:56.811Z,16.27
2018-05-29T20:01:31.473Z,19.67
2018-05-29T20:04:06.561Z,17.80
2018-05-29T20:06:41.192Z,18.13
2018-05-29T20:09:15.890Z,21.20
2018-05-29T20:11:50.510Z,13.73
2018-05-29T20:14:21.239Z,21.60
2018-05-29T20:16:55.934Z,15.33
2018-05-29T20:19:30.622Z,16.80
2018-05-29T20:22:06.087Z,13.73
2018-05-29T20:24:40.789Z,18.07
2018-05-29T20:27:15.431Z,16.70
2018-05-29T20:29:50.640Z,14.37
2018-05-29T20:32:26.141Z,12.23
2018-05-29T20:35:01.007Z,11.07
2018-05-29T20:37:35.750Z,15.07
2018-05-29T20:40:11.197Z,11.30
2018-05-29T20:42:40.233Z,12.73
2018-05-29T20:45:15.196Z,11.90
2018-05-29T20:47:49.822Z,12.40
2018-05-29T20:50:24.410Z,11.60
2018-05-29T20:53:00.548Z,12.90
2018-05-29T20:55:35.320Z,10.70
2018-05-29T20:58:09.953Z,10.67
2018-05-29T21:00:44.354Z,10.63
2018-05-29T21:03:18.953Z,14.27
2018-05-29T21:05:53.488Z,15.60
2018-05-29T21:08:28.225Z,21.83
2018-05-29T21:11:02.999Z,17.80
2018-05-29T21:13:37.949Z,16.80
2018-05-29T21:16:12.551Z,16.03
2018-05-29T21:18:50.123Z,20.33
2018-05-29T21:21:24.808Z,16.40
2018-05-29T21:23:59.616Z,19.00
2018-05-29T21:26:30.217Z,15.97
2018-05-29T21:29:04.974Z,11.80
2018-05-29T21:31:39.575Z,16.03
2018-05-29T21:34:14.330Z,21.10
2018-05-29T21:36:49.144Z,22.17
2018-05-29T21:39:23.882Z,15.50
2018-05-29T21:41:58.471Z,21.10
2018-05-29T21:44:33.089Z,14.43
2018-05-29T21:47:07.814Z,14.93
2018-05-29T21:49:42.561Z,14.33
2018-05-29T21:52:18.151Z,15.73
2018-05-29T21:54:52.830Z,14.23
2018-05-29T21:57:27.427Z,16.30
2018-05-29T22:00:02.083Z,15.80
2018-05-29T22:02:36.880Z,16.93
2018-05-29T22:05:11.570Z,17.27
2018-05-29T22:07:46.177Z,12.73
2018-05-29T22:10:20.914Z,12.60
2018-05-29T22:12:55.183Z,11.60
2018-05-29T22:15:30.660Z,11.97
2018-05-29T22:18:04.918Z,16.10
2018-05-29T22:20:39.694Z,12.07
2018-05-29T22:23:14.193Z,11.07
2018-05-29T22:25:48.947Z,15.37
2018-05-29T22:28:23.693Z,11.67
2018-05-29T22:30:59.090Z,11.80
2018-05-29T22:33:33.832Z,10.57
2018-05-29T22:36:08.491Z,11.67
2018-05-29T22:38:43.891Z,12.07
2018-05-29T22:41:18.655Z,12.13
2018-05-29T22:43:53.370Z,12.50
2018-05-29T22:46:27.928Z,12.97
2018-05-29T22:49:02.597Z,12.53
2018-05-29T22:51:37.316Z,13.57
2018-05-29T22:54:12.861Z,19.97
2018-05-29T22:56:48.373Z,14.00
2018-05-29T22:59:22.938Z,17.63
2018-05-29T23:01:57.756Z,17.43
2018-05-29T23:04:32.273Z,16.00
2018-05-29T23:07:07.053Z,19.20
2018-05-29T23:09:42.881Z,17.50
2018-05-29T23:12:17.472Z,18.73
2018-05-29T23:14:52.833Z,15.60
2018-05-29T23:17:22.789Z,15.73
2018-05-29T23:19:58.557Z,14.60
2018-05-29T23:22:33.232Z,15.07
2018-05-29T23:25:08.010Z,12.37
2018-05-29T23:27:42.658Z,15.07
2018-05-29T23:30:18.022Z,13.80
2018-05-29T23:32:52.722Z,13.43
2018-05-29T23:35:27.471Z,13.43
2018-05-29T23:38:02.135Z,13.57
2018-05-29T23:40:34.063Z,13.23
2018-05-29T23:43:08.921Z,13.30
2018-05-29T23:45:43.536Z,14.90
2018-05-29T23:48:18.144Z,14.20
2018-05-29T23:50:52.758Z,12.73
2018-05-29T23:53:27.416Z,13.37
2018-05-29T23:56:02.109Z,14.33
2018-05-29T23:58:36.664Z,13.37
